Time;durP1;ratioP1;P1;durP2;ratioP2;P2;SDS_P1;SDS_P2;PMS_P1;PMS_P2;Temp;Humidity;BMP_temperature;BMP_pressure;BME280_temperature;BME280_humidity;BME280_pressure;Samples;Min_cycle;Max_cycle;Signal;HPM_P1;HPM_P2
2022/05/21 00:00:21;;;;;;;3.70;2.70;;;;;;;19.16;40.77;95084.09;5112403;28;20185;-81
2022/05/21 00:02:48;;;;;;;3.60;2.87;;;;;;;18.85;40.89;95044.63;5099513;28;20703;-80
2022/05/21 00:05:16;;;;;;;4.90;2.90;;;;;;;18.98;40.87;95074.09;5095748;28;20186;-83
2022/05/21 00:07:44;;;;;;;2.90;2.60;;;;;;;19.05;40.92;95090.56;5097184;28;20208;-81
2022/05/21 00:10:13;;;;;;;8.60;3.13;;;;;;;19.03;41.08;95092.50;5098205;28;20203;-79
2022/05/21 00:12:41;;;;;;;4.47;2.27;;;;;;;18.80;41.26;95055.53;5091526;28;20190;-80
2022/05/21 00:15:10;;;;;;;2.90;2.40;;;;;;;18.98;41.33;95081.06;5091384;28;20194;-79
2022/05/21 00:17:37;;;;;;;2.80;2.60;;;;;;;18.95;41.47;95087.41;5091354;28;20189;-79
2022/05/21 00:20:07;;;;;;;4.37;2.80;;;;;;;18.91;41.58;95086.19;5091508;28;20196;-79
2022/05/21 00:22:33;;;;;;;4.47;2.67;;;;;;;18.88;41.67;95083.16;5092020;28;20212;-82
2022/05/21 00:25:02;;;;;;;3.23;2.90;;;;;;;18.54;41.92;95033.44;5092534;28;20206;-79
2022/05/21 00:27:28;;;;;;;3.67;2.57;;;;;;;18.81;41.99;95080.44;5093524;28;20196;-79
2022/05/21 00:29:55;;;;;;;5.73;2.50;;;;;;;18.55;42.03;95042.81;5093556;28;20223;-79
2022/05/21 00:32:22;;;;;;;5.13;2.80;;;;;;;18.61;42.10;95050.84;5092548;28;20190;-80
2022/05/21 00:34:49;;;;;;;3.57;2.37;;;;;;;18.73;42.26;95059.81;5092099;28;20643;-80
2022/05/21 00:37:16;;;;;;;3.33;2.50;;;;;;;18.47;42.08;95021.38;5091926;28;20185;-81
2022/05/21 00:39:42;;;;;;;4.67;2.43;;;;;;;18.60;42.15;95041.47;5091917;28;20275;-81
2022/05/21 00:42:11;;;;;;;4.73;2.70;;;;;;;18.49;42.24;95022.00;5091045;28;20656;-81
2022/05/21 00:44:38;;;;;;;3.33;2.50;;;;;;;18.56;42.16;95039.22;5091019;28;20194;-81
2022/05/21 00:47:05;;;;;;;7.47;2.50;;;;;;;18.61;42.13;95051.66;5091097;28;20275;-79
2022/05/21 00:49:34;;;;;;;3.70;2.60;;;;;;;18.56;42.44;95044.41;5091142;28;20196;-82
2022/05/21 00:52:07;;;;;;;4.93;2.83;;;;;;;18.53;42.16;95039.59;5090916;28;20216;-80
2022/05/21 00:54:37;;;;;;;2.57;2.37;;;;;;;18.51;42.17;95040.75;5091202;28;20290;-79
2022/05/21 00:57:10;;;;;;;5.37;2.40;;;;;;;18.35;42.49;95021.03;5090552;28;20194;-78
2022/05/21 00:59:51;;;;;;;4.70;2.57;;;;;;;18.44;42.50;95038.09;5090787;28;20193;-80
2022/05/21 01:02:33;;;;;;;4.07;2.47;;;;;;;18.40;42.56;95039.41;5106057;28;20193;-79
2022/05/21 01:05:02;;;;;;;4.23;2.73;;;;;;;18.30;42.68;95029.28;5091134;28;20193;-81
2022/05/21 01:07:29;;;;;;;6.33;2.50;;;;;;;18.36;42.66;95037.34;5090298;28;20205;-81
2022/05/21 01:10:00;;;;;;;7.63;2.60;;;;;;;18.26;42.86;95032.41;5090874;28;20181;-80
2022/05/21 01:12:32;;;;;;;8.20;2.73;;;;;;;18.02;42.78;94995.44;5090312;28;20190;-79
2022/05/21 01:15:05;;;;;;;4.30;2.70;;;;;;;18.27;43.08;95039.22;5090719;28;20313;-82
2022/05/21 01:17:33;;;;;;;4.60;2.50;;;;;;;18.24;43.29;95037.78;5090171;28;20193;-81
2022/05/21 01:20:04;;;;;;;3.73;2.80;;;;;;;18.21;43.21;95032.94;5090483;28;20272;-79
2022/05/21 01:22:40;;;;;;;5.23;2.67;;;;;;;18.19;43.30;95037.50;5089902;28;20196;-81
2022/05/21 01:25:08;;;;;;;3.87;3.00;;;;;;;18.16;43.26;95030.09;5090727;28;20224;-80
2022/05/21 01:27:36;;;;;;;3.43;2.43;;;;;;;18.03;43.52;95025.50;5089988;28;20590;-80
2022/05/21 01:30:06;;;;;;;4.50;2.67;;;;;;;18.12;43.42;95048.72;5090312;28;20182;-81
2022/05/21 01:32:33;;;;;;;3.40;2.40;;;;;;;18.08;43.74;95040.50;5089769;28;20197;-83
2022/05/21 01:35:00;;;;;;;7.90;2.53;;;;;;;18.06;43.64;95034.72;5090189;28;20216;-80
2022/05/21 01:37:29;;;;;;;5.27;2.60;;;;;;;17.78;43.36;95000.81;5089951;28;20186;-81
2022/05/21 01:39:57;;;;;;;2.60;2.10;;;;;;;17.66;43.59;94987.47;5090280;28;20671;-81
2022/05/21 01:42:25;;;;;;;2.80;2.50;;;;;;;17.84;43.56;95023.41;5089970;28;20193;-81
2022/05/21 01:44:52;;;;;;;6.00;2.53;;;;;;;17.59;43.61;94989.13;5090383;28;20197;-82
2022/05/21 01:47:20;;;;;;;3.90;2.30;;;;;;;17.82;43.68;95024.56;5089773;28;20821;-81
2022/05/21 01:49:47;;;;;;;5.07;2.70;;;;;;;17.75;43.63;95016.69;5089967;28;20193;-80
2022/05/21 01:52:15;;;;;;;2.60;1.90;;;;;;;17.48;43.55;94974.81;5091641;28;20213;-82
2022/05/21 01:54:41;;;;;;;5.07;2.47;;;;;;;17.82;43.90;95025.34;5090746;28;20216;-82
2022/05/21 01:57:11;;;;;;;2.37;2.10;;;;;;;17.81;43.77;95031.53;5089970;28;20189;-81
2022/05/21 01:59:39;;;;;;;6.37;2.67;;;;;;;17.77;43.86;95025.88;5090303;28;20278;-80
2022/05/21 02:02:07;;;;;;;2.83;2.40;;;;;;;17.75;44.05;95034.81;5090331;28;20194;-81
2022/05/21 02:04:34;;;;;;;3.03;2.33;;;;;;;17.65;43.93;95016.09;5090336;28;20222;-82
2022/05/21 02:07:01;;;;;;;3.70;2.33;;;;;;;17.39;44.18;94982.81;5090688;28;20258;-80
2022/05/21 02:09:28;;;;;;;2.03;1.93;;;;;;;17.66;44.16;95021.09;5089924;28;20201;-79
2022/05/21 02:11:54;;;;;;;4.07;2.20;;;;;;;17.64;44.31;95017.88;5091422;28;20190;-79
2022/05/21 02:14:22;;;;;;;3.10;2.37;;;;;;;17.61;44.32;95007.84;5095281;28;20225;-79
2022/05/21 02:16:49;;;;;;;2.27;1.90;;;;;;;17.59;44.52;95009.03;5093933;28;20186;-79
2022/05/21 02:19:16;;;;;;;4.03;2.30;;;;;;;17.56;44.44;95005.00;5093941;28;20185;-80
2022/05/21 02:21:43;;;;;;;5.63;2.00;;;;;;;17.53;44.71;94995.81;5093965;28;20200;-79
2022/05/21 02:24:10;;;;;;;2.63;2.10;;;;;;;17.52;44.50;95003.72;5093566;28;20545;-79
2022/05/21 02:26:38;;;;;;;6.23;2.23;;;;;;;17.50;44.52;94997.94;5094059;28;20186;-78
2022/05/21 02:29:06;;;;;;;7.00;2.60;;;;;;;17.26;44.75;94971.25;5093659;28;20197;-78
2022/05/21 02:31:35;;;;;;;2.80;2.30;;;;;;;17.32;44.97;94979.31;5093863;28;20292;-79
2022/05/21 02:34:02;;;;;;;2.10;1.93;;;;;;;17.41;45.11;95002.34;5093360;28;20233;-81
2022/05/21 02:39:28;;;;;;;4.40;2.13;;;;;;;17.36;45.13;95006.41;5051261;28;20240;-80
2022/05/21 02:41:56;;;;;;;7.87;2.20;;;;;;;17.34;45.19;95001.44;5051343;28;20221;-80
2022/05/21 02:44:23;;;;;;;4.67;2.37;;;;;;;17.04;45.25;94953.97;5050853;28;20191;-80
2022/05/21 02:46:51;;;;;;;2.43;2.17;;;;;;;17.33;45.19;95001.59;5050810;28;20582;-80
2022/05/21 02:49:18;;;;;;;2.30;2.10;;;;;;;17.30;45.01;95000.16;5051452;28;20187;-80
2022/05/21 02:51:45;;;;;;;2.33;2.00;;;;;;;17.30;45.20;95007.91;5051309;28;20195;-81
2022/05/21 02:54:14;;;;;;;3.60;2.20;;;;;;;17.26;45.09;95004.84;5050886;28;20218;-81
2022/05/21 02:56:44;;;;;;;2.60;2.40;;;;;;;17.17;45.16;94994.75;5051281;28;20233;-82
2022/05/21 02:59:11;;;;;;;2.43;2.17;;;;;;;17.04;45.24;94979.81;5051535;28;20272;-80
2022/05/21 03:01:38;;;;;;;2.67;2.10;;;;;;;16.58;45.27;94907.38;5050961;28;20590;-79
2022/05/21 03:04:08;;;;;;;4.23;2.07;;;;;;;16.67;45.38;94933.97;5050482;28;20202;-82
2022/05/21 03:06:35;;;;;;;2.50;2.30;;;;;;;17.19;45.43;95027.22;5050610;28;20187;-80
2022/05/21 03:11:47;;;;;;;4.63;2.03;;;;;;;17.18;45.09;95028.16;5050513;28;20221;-78
2022/05/21 03:14:14;;;;;;;2.17;1.97;;;;;;;17.00;45.28;95007.75;5050101;28;20819;-80
2022/05/21 03:16:41;;;;;;;3.63;2.10;;;;;;;17.16;45.21;95026.75;5085028;28;20572;-81
2022/05/21 03:19:09;;;;;;;4.87;2.20;;;;;;;17.16;45.21;95022.38;5092841;28;20318;-80
2022/05/21 03:21:36;;;;;;;2.30;1.80;;;;;;;17.15;45.34;95023.38;5092938;28;20182;-81
2022/05/21 03:24:03;;;;;;;2.23;2.00;;;;;;;17.14;45.33;95016.59;5092545;28;20178;-81
2022/05/21 03:26:31;;;;;;;3.20;2.40;;;;;;;17.15;45.38;95022.56;5092786;28;20564;-82
2022/05/21 03:28:58;;;;;;;6.20;2.37;;;;;;;17.11;45.44;95006.59;5093364;28;20197;-81
2022/05/21 03:31:25;;;;;;;4.87;2.50;;;;;;;17.16;45.55;95012.03;5092712;28;20571;-81
2022/05/21 03:33:52;;;;;;;7.83;2.37;;;;;;;17.04;45.68;94984.97;5092618;28;20617;-81
2022/05/21 03:36:20;;;;;;;10.20;2.47;;;;;;;17.11;45.80;95001.41;5092755;28;20182;-80
2022/05/21 03:38:47;;;;;;;9.07;2.93;;;;;;;17.19;45.58;95009.13;5092993;28;20189;-81
2022/05/21 03:41:14;;;;;;;3.87;2.50;;;;;;;17.21;45.94;95008.94;5097125;28;20669;-84
2022/05/21 03:43:40;;;;;;;4.37;2.67;;;;;;;17.08;45.92;94983.66;5093694;28;20195;-80
2022/05/21 03:46:07;;;;;;;3.60;2.53;;;;;;;17.23;45.87;95007.81;5092561;28;20205;-81
2022/05/21 03:48:34;;;;;;;3.37;2.33;;;;;;;17.25;46.17;95003.25;5092615;28;20194;-81
2022/05/21 03:51:01;;;;;;;4.40;2.50;;;;;;;16.90;46.10;94955.50;5092762;28;20201;-82
2022/05/21 03:53:30;;;;;;;4.93;2.77;;;;;;;17.28;46.25;95015.84;5092222;28;20182;-81
2022/05/21 03:55:57;;;;;;;5.80;2.70;;;;;;;17.30;46.35;95021.63;5091782;28;20220;-81
2022/05/21 03:58:24;;;;;;;5.50;3.20;;;;;;;17.33;46.46;95025.69;5092710;28;20181;-82
2022/05/21 04:00:51;;;;;;;7.27;2.80;;;;;;;17.36;46.58;95027.09;5091988;28;20178;-83
2022/05/21 04:03:19;;;;;;;7.83;3.20;;;;;;;16.84;46.38;94945.84;5092332;28;20193;-81
2022/05/21 04:05:47;;;;;;;6.50;3.27;;;;;;;17.26;46.60;95016.97;5092162;28;20569;-82
2022/05/21 04:08:16;;;;;;;7.00;3.73;;;;;;;17.33;46.75;95024.88;5091946;28;20231;-80
2022/05/21 04:10:44;;;;;;;6.77;4.93;;;;;;;17.26;47.17;95009.22;5093455;28;20190;-81
2022/05/21 04:13:11;;;;;;;6.77;5.00;;;;;;;17.50;46.91;95045.28;5098909;28;20186;-79
2022/05/21 04:15:38;;;;;;;7.63;4.50;;;;;;;17.55;46.87;95045.56;5099075;28;20224;-81
2022/05/21 04:18:05;;;;;;;6.33;4.33;;;;;;;17.42;46.83;95021.25;5091562;28;20190;-78
2022/05/21 04:20:32;;;;;;;5.80;4.13;;;;;;;17.65;46.91;95049.72;5091905;28;20190;-81
2022/05/21 04:22:59;;;;;;;7.00;5.47;;;;;;;17.70;46.82;95052.56;5091336;28;20200;-80
2022/05/21 04:25:27;;;;;;;8.47;4.57;;;;;;;17.12;46.94;94951.31;5091829;28;20189;-81
2022/05/21 04:27:55;;;;;;;7.50;5.07;;;;;;;17.78;46.98;95042.22;5091697;28;20189;-80
2022/05/21 04:30:28;;;;;;;7.80;4.53;;;;;;;17.54;46.91;95007.75;5091810;28;20178;-80
2022/05/21 04:32:56;;;;;;;8.10;4.80;;;;;;;17.80;46.91;95035.88;5090692;28;20304;-79
2022/05/21 04:35:24;;;;;;;11.30;5.17;;;;;;;17.94;47.29;95046.47;5090725;28;20229;-78
2022/05/21 04:37:51;;;;;;;6.97;4.90;;;;;;;17.99;47.32;95044.16;5091182;28;20688;-80
2022/05/21 04:40:23;;;;;;;9.37;5.07;;;;;;;18.02;47.43;95034.25;5091582;28;20280;-79
2022/05/21 04:42:51;;;;;;;7.80;5.07;;;;;;;17.62;47.68;94964.72;5091388;28;20196;-81
2022/05/21 04:45:19;;;;;;;8.83;4.73;;;;;;;18.10;47.98;95033.38;5091201;28;20182;-82
2022/05/21 04:47:46;;;;;;;7.40;4.77;;;;;;;17.89;47.98;94986.66;5091034;28;20660;-83
2022/05/21 04:50:13;;;;;;;5.83;4.53;;;;;;;18.22;47.80;95031.97;5091509;28;20182;-83
2022/05/21 04:52:41;;;;;;;8.57;4.17;;;;;;;17.98;48.12;94998.56;5092135;28;20189;-79
2022/05/21 04:55:10;;;;;;;7.27;4.60;;;;;;;18.36;47.94;95034.75;5097156;28;20302;-82
2022/05/21 04:57:37;;;;;;;5.93;4.00;;;;;;;18.12;47.60;94995.16;5096608;28;20193;-79
2022/05/21 05:00:05;;;;;;;6.60;4.13;;;;;;;18.31;47.23;95014.59;5090751;28;20613;-80
2022/05/21 05:02:34;;;;;;;6.77;4.17;;;;;;;18.20;47.04;94971.78;5090845;28;20247;-79
2022/05/21 05:05:00;;;;;;;7.43;3.90;;;;;;;18.33;47.77;94952.25;5090618;28;20196;-79
2022/05/21 05:07:27;;;;;;;4.43;3.50;;;;;;;19.22;49.63;95030.72;5090681;28;20289;-82
2022/05/21 05:09:54;;;;;;;13.83;4.57;;;;;;;19.82;50.74;95055.53;5090554;28;20243;-80
2022/05/21 05:12:21;;;;;;;7.50;3.77;;;;;;;20.46;51.00;95047.59;5090554;28;20186;-79
2022/05/21 05:14:48;;;;;;;6.30;3.70;;;;;;;21.05;50.96;95034.16;5090165;28;20726;-79
2022/05/21 05:17:15;;;;;;;7.43;3.10;;;;;;;21.53;50.32;94976.09;5090499;28;20200;-79
2022/05/21 05:19:45;;;;;;;5.50;3.10;;;;;;;22.87;49.36;95040.94;5090231;28;20964;-79
2022/05/21 05:22:13;;;;;;;6.97;3.03;;;;;;;23.91;47.67;95052.94;5090429;28;20193;-78
2022/05/21 05:24:40;;;;;;;8.43;3.03;;;;;;;24.61;46.24;94997.09;5090385;28;20692;-79
2022/05/21 05:27:07;;;;;;;4.70;3.03;;;;;;;25.63;44.52;95007.75;5090605;28;20212;-81
2022/05/21 05:29:34;;;;;;;5.05;3.05;;;;;;;26.90;42.85;95046.66;5090324;28;20675;-81
2022/05/21 05:32:01;;;;;;;4.60;2.85;;;;;;;27.78;41.01;95031.59;5090855;28;20669;-81
2022/05/21 05:34:28;;;;;;;9.48;2.90;;;;;;;28.42;39.24;94985.56;5090327;28;20653;-81
2022/05/21 05:36:57;;;;;;;5.47;2.80;;;;;;;29.02;37.43;94935.75;5090439;28;20205;-78
2022/05/21 05:39:24;;;;;;;4.45;3.17;;;;;;;30.66;36.06;95050.38;5091144;28;20348;-78
2022/05/21 05:41:51;;;;;;;4.90;2.63;;;;;;;31.25;34.86;95007.06;5090792;28;20191;-78
2022/05/21 05:44:20;;;;;;;5.68;2.60;;;;;;;32.34;33.87;95044.03;5091271;28;20190;-79
2022/05/21 05:46:48;;;;;;;7.60;2.90;;;;;;;33.14;32.26;95039.69;5089796;28;20194;-79
2022/05/21 05:49:15;;;;;;;9.10;2.95;;;;;;;33.61;31.45;94987.25;5090129;28;20194;-80
2022/05/21 05:51:42;;;;;;;10.23;3.33;;;;;;;34.44;30.39;95007.56;5089916;28;20191;-80
2022/05/21 05:54:10;;;;;;;6.55;2.63;;;;;;;35.34;29.32;95030.03;5090256;28;20217;-78
2022/05/21 05:56:37;;;;;;;5.75;2.90;;;;;;;35.99;28.76;95029.44;5090114;28;20214;-81
2022/05/21 06:01:48;;;;;;;3.80;2.75;;;;;;;37.11;27.12;95006.16;5090111;28;20192;-80
2022/05/21 06:04:14;;;;;;;5.50;3.00;;;;;;;37.79;26.51;95034.63;5090533;28;20251;-80
2022/05/21 06:06:41;;;;;;;7.45;3.30;;;;;;;38.32;25.56;95033.19;5089645;28;20197;-80
2022/05/21 06:09:10;;;;;;;7.85;3.10;;;;;;;38.82;25.25;95028.44;5090645;28;20186;-80
2022/05/21 06:11:38;;;;;;;4.43;3.05;;;;;;;39.22;24.76;95015.03;5089826;28;20182;-79
2022/05/21 06:14:05;;;;;;;6.38;3.08;;;;;;;39.72;24.25;95011.97;5090018;28;20190;-79
2022/05/21 06:16:33;;;;;;;9.02;3.50;;;;;;;40.15;23.91;95015.75;5089543;28;20209;-79
2022/05/21 06:19:00;;;;;;;9.13;2.90;;;;;;;40.54;23.36;95012.06;5089862;28;20198;-79
2022/05/21 06:21:27;;;;;;;4.65;3.15;;;;;;;40.92;23.07;95017.44;5089879;28;20177;-80
2022/05/21 06:23:54;;;;;;;6.15;3.28;;;;;;;41.26;22.82;95013.03;5090055;28;20181;-78
2022/05/21 06:26:22;;;;;;;5.55;3.05;;;;;;;41.52;22.38;95002.16;5089896;28;20276;-79
2022/05/21 06:28:50;;;;;;;7.45;3.33;;;;;;;41.88;22.07;95006.16;5089573;28;20672;-81
2022/05/21 06:31:17;;;;;;;5.60;3.08;;;;;;;42.17;21.59;95003.34;5089836;28;20280;-83
2022/05/21 06:33:44;;;;;;;4.65;3.13;;;;;;;42.45;21.57;95000.88;5089367;28;20239;-81
2022/05/21 06:36:14;;;;;;;5.55;2.92;;;;;;;42.66;21.05;94989.28;5090083;28;20228;-80
2022/05/21 06:38:43;;;;;;;9.60;3.63;;;;;;;42.41;20.92;94905.06;5089581;28;20189;-81
2022/05/21 06:41:10;;;;;;;4.63;2.85;;;;;;;43.13;20.55;94988.84;5089996;28;20205;-83
2022/05/21 06:43:39;;;;;;;4.22;2.72;;;;;;;43.31;20.56;94996.38;5089576;28;20185;-80
2022/05/21 06:46:05;;;;;;;5.28;2.95;;;;;;;43.48;20.45;94991.84;5089997;28;20193;-81
2022/05/21 06:48:32;;;;;;;4.88;2.83;;;;;;;43.65;19.95;94982.72;5089553;28;20193;-81
2022/05/21 06:51:05;;;;;;;4.70;2.58;;;;;;;43.81;19.71;94970.84;5089438;28;20648;-79
2022/05/21 06:53:32;;;;;;;4.55;2.50;;;;;;;43.98;19.37;94977.91;5092881;28;20581;-79
2022/05/21 06:55:59;;;;;;;4.75;2.47;;;;;;;44.16;19.39;94975.66;5093149;28;20323;-79
2022/05/21 06:58:26;;;;;;;4.70;2.90;;;;;;;44.31;19.64;94966.84;5089680;28;20181;-80
2022/05/21 07:00:54;;;;;;;2.88;2.35;;;;;;;44.48;19.58;94968.44;5094003;28;20189;-80
2022/05/21 07:03:21;;;;;;;8.38;3.03;;;;;;;44.44;19.41;94937.09;5093397;28;20219;-79
2022/05/21 07:08:32;;;;;;;3.28;2.78;;;;;;;44.64;18.83;94922.56;5093347;28;20183;-79
2022/05/21 07:10:59;;;;;;;3.42;2.40;;;;;;;44.97;18.97;94956.47;5094054;28;20192;-79
2022/05/21 07:13:28;;;;;;;4.10;3.03;;;;;;;44.97;18.95;94941.06;5093419;28;20185;-79
2022/05/21 07:15:56;;;;;;;5.10;3.10;;;;;;;45.15;18.62;94948.81;5093108;28;20217;-80
2022/05/21 07:18:25;;;;;;;3.97;2.80;;;;;;;45.21;18.28;94948.19;5092785;28;20200;-79
2022/05/21 07:20:52;;;;;;;6.15;2.92;;;;;;;45.29;18.47;94949.88;5093202;28;20185;-79
2022/05/21 07:23:19;;;;;;;6.40;3.03;;;;;;;45.29;18.38;94930.97;5092759;28;20549;-78
2022/05/21 07:25:47;;;;;;;5.55;2.78;;;;;;;45.42;18.08;94941.69;5092937;28;20185;-79
2022/05/21 07:28:15;;;;;;;3.92;2.88;;;;;;;45.46;18.64;94926.31;5093239;28;20220;-78
2022/05/21 07:30:44;;;;;;;4.72;2.83;;;;;;;45.49;18.30;94931.81;5092470;28;20199;-79
2022/05/21 07:33:13;;;;;;;6.22;3.05;;;;;;;45.50;18.42;94929.88;5092606;28;20229;-80
2022/05/21 07:35:41;;;;;;;4.38;2.10;;;;;;;45.33;18.21;94895.94;5092934;28;20221;-79
2022/05/21 07:38:08;;;;;;;6.80;2.97;;;;;;;45.50;18.09;94932.59;5092963;28;20189;-79
2022/05/21 07:40:36;;;;;;;3.50;2.60;;;;;;;45.50;18.01;94937.97;5092262;28;20200;-80
2022/05/21 07:43:10;;;;;;;3.75;2.85;;;;;;;45.49;17.99;94931.81;5092832;28;20181;-78
2022/05/21 07:45:41;;;;;;;5.55;2.83;;;;;;;45.48;18.44;94921.34;5096026;28;20645;-78
2022/05/21 07:48:10;;;;;;;5.30;2.65;;;;;;;45.45;17.96;94924.75;5101277;28;20226;-80
2022/05/21 07:50:40;;;;;;;5.57;2.72;;;;;;;45.41;18.21;94919.28;5093687;28;20178;-80
2022/05/21 07:53:11;;;;;;;3.53;3.10;;;;;;;45.35;18.23;94919.91;5092602;28;20192;-80
2022/05/21 07:55:38;;;;;;;9.25;3.45;;;;;;;45.30;18.27;94931.78;5092614;28;20231;-79
2022/05/21 07:58:06;;;;;;;3.70;3.05;;;;;;;45.21;18.27;94923.06;5092603;28;20258;-81
2022/05/21 08:00:33;;;;;;;5.38;3.00;;;;;;;44.95;17.71;94889.34;5074465;28;20257;-80
2022/05/21 08:02:59;;;;;;;6.65;3.20;;;;;;;45.05;18.17;94913.13;5092288;28;20668;-81
2022/05/21 08:05:26;;;;;;;5.28;3.40;;;;;;;44.86;17.97;94893.34;5092700;28;20664;-81
2022/05/21 08:07:54;;;;;;;5.50;3.25;;;;;;;44.88;17.87;94904.59;5096439;28;20196;-81
2022/05/21 08:10:22;;;;;;;3.97;2.75;;;;;;;44.69;18.29;94884.50;5092464;28;20278;-82
2022/05/21 08:12:50;;;;;;;6.10;3.60;;;;;;;44.54;18.35;94874.50;5091766;28;20200;-80
2022/05/21 08:15:17;;;;;;;5.45;2.92;;;;;;;44.38;18.00;94866.41;5091807;28;20196;-79
2022/05/21 08:17:44;;;;;;;5.65;3.17;;;;;;;44.41;17.95;94881.13;5091689;28;20631;-80
2022/05/21 08:20:12;;;;;;;9.00;3.72;;;;;;;44.26;18.52;94877.31;5091407;28;20185;-80
2022/05/21 08:28:12;;;;;;;6.85;4.07;;;;;;;43.77;18.26;94869.47;5091636;28;20188;-81
2022/05/21 08:30:39;;;;;;;9.77;4.18;;;;;;;43.66;18.58;94869.22;5091185;28;20193;-80
2022/05/21 08:33:07;;;;;;;7.30;3.17;;;;;;;43.50;18.52;94871.06;5091239;28;20231;-82
2022/05/21 08:35:35;;;;;;;8.00;3.38;;;;;;;43.31;19.05;94864.41;5091180;28;20586;-80
2022/05/21 08:38:02;;;;;;;5.38;2.90;;;;;;;43.24;18.61;94871.47;5091380;28;20193;-82
2022/05/21 08:40:40;;;;;;;5.63;3.30;;;;;;;42.98;19.01;94853.81;5090936;28;20181;-81
2022/05/21 08:43:16;;;;;;;8.65;3.17;;;;;;;42.93;18.80;94872.09;5091598;28;20187;-81
2022/05/21 08:45:59;;;;;;;5.45;3.53;;;;;;;42.76;18.94;94873.91;5091043;28;20579;-80
2022/05/21 08:48:31;;;;;;;6.60;2.97;;;;;;;42.58;19.02;94870.66;5091380;28;20224;-78
2022/05/21 08:51:00;;;;;;;5.35;3.33;;;;;;;42.42;19.25;94863.59;5090627;28;20189;-80
2022/05/21 08:53:29;;;;;;;4.18;3.13;;;;;;;42.25;18.92;94869.97;5091199;28;20181;-79
2022/05/21 08:56:00;;;;;;;7.72;3.30;;;;;;;42.07;19.51;94867.47;5090513;28;20678;-78
2022/05/21 08:58:33;;;;;;;5.07;3.30;;;;;;;41.79;19.54;94845.00;5091352;28;20204;-80
2022/05/21 09:01:00;;;;;;;6.05;3.40;;;;;;;41.71;19.59;94868.13;5090622;28;20189;-78
2022/05/21 09:03:28;;;;;;;6.88;3.38;;;;;;;41.53;19.22;94861.38;5090993;28;20273;-78
2022/05/21 09:06:07;;;;;;;5.13;2.92;;;;;;;41.34;19.81;94857.25;5088732;28;20251;-79
2022/05/21 09:08:42;;;;;;;5.97;3.63;;;;;;;41.14;19.48;94860.72;5090757;28;20668;-78
2022/05/21 09:11:15;;;;;;;5.10;3.17;;;;;;;40.94;19.82;94851.56;5090849;28;20193;-79
2022/05/21 09:13:47;;;;;;;6.22;3.00;;;;;;;40.41;19.87;94796.63;5090536;28;20224;-78
2022/05/21 09:19:03;;;;;;;3.20;2.90;;;;;;;40.38;20.11;94845.56;5090246;28;20327;-78
2022/05/21 09:21:33;;;;;;;6.78;3.22;;;;;;;40.21;20.38;94851.00;5090263;28;20244;-81
2022/05/21 09:24:02;;;;;;;4.75;3.15;;;;;;;39.86;20.40;94814.38;5090122;28;20185;-81
2022/05/21 09:26:45;;;;;;;5.10;2.83;;;;;;;39.87;20.59;94845.41;5090320;28;20213;-80
2022/05/21 09:29:16;;;;;;;5.13;2.50;;;;;;;39.59;20.51;94820.09;5090376;28;20290;-81
2022/05/21 09:31:44;;;;;;;3.08;2.72;;;;;;;39.52;20.69;94833.19;5084075;28;20200;-81
2022/05/21 09:34:14;;;;;;;5.75;2.90;;;;;;;39.34;20.67;94835.91;5080418;28;20604;-80
2022/05/21 09:36:41;;;;;;;8.02;3.10;;;;;;;39.13;20.77;94825.03;5077826;28;20225;-78
2022/05/21 09:39:08;;;;;;;5.45;2.55;;;;;;;38.92;20.86;94818.72;5070726;28;20190;-78
2022/05/21 09:41:37;;;;;;;3.20;2.20;;;;;;;38.63;21.21;94804.03;5075807;28;20187;-78
2022/05/21 09:47:10;;;;;;;4.82;2.67;;;;;;;38.46;21.11;94821.94;5075590;28;20193;-82
2022/05/21 09:49:39;;;;;;;3.97;2.42;;;;;;;38.32;21.10;94822.06;5070756;28;20201;-80
2022/05/21 09:52:08;;;;;;;3.58;2.40;;;;;;;38.15;21.21;94818.19;5071951;28;20248;-81
2022/05/21 09:54:40;;;;;;;2.58;2.13;;;;;;;38.01;21.13;94816.75;5071095;28;20198;-83
2022/05/21 09:57:23;;;;;;;2.67;2.33;;;;;;;37.25;21.25;94737.47;5072309;28;20217;-80
2022/05/21 10:00:04;;;;;;;3.05;2.00;;;;;;;37.60;21.37;94815.09;5074548;28;20198;-82
2022/05/21 10:02:40;;;;;;;3.30;2.03;;;;;;;37.41;21.50;94808.09;5071572;28;20650;-82
2022/05/21 10:05:12;;;;;;;3.05;2.20;;;;;;;37.27;21.51;94802.00;5074546;28;20742;-82
2022/05/21 10:13:20;;;;;;;3.47;2.20;;;;;;;36.87;21.89;94793.03;5077523;28;20661;-81
2022/05/21 10:15:52;;;;;;;3.97;1.98;;;;;;;36.73;21.97;94789.63;5073653;28;20205;-82
2022/05/21 10:18:26;;;;;;;2.78;1.90;;;;;;;36.60;21.82;94786.69;5072402;28;20198;-82
2022/05/21 10:20:57;;;;;;;3.25;2.17;;;;;;;36.48;22.08;94778.44;5070929;28;20629;-81
2022/05/21 10:23:35;;;;;;;4.47;2.10;;;;;;;36.36;22.37;94767.50;5071005;28;20649;-81
2022/05/21 10:26:13;;;;;;;2.53;1.98;;;;;;;36.24;22.10;94761.88;5069963;28;20229;-83
2022/05/21 10:28:57;;;;;;;2.45;1.88;;;;;;;36.12;22.57;94767.69;5070550;28;20255;-79
2022/05/21 10:31:42;;;;;;;2.88;1.95;;;;;;;35.82;22.59;94743.22;5070387;28;20681;-81
2022/05/21 10:34:22;;;;;;;2.42;1.98;;;;;;;35.89;22.78;94766.81;5071683;28;20237;-82
2022/05/21 10:37:05;;;;;;;5.95;2.42;;;;;;;35.68;23.03;94751.22;5077181;28;20232;-80
2022/05/21 10:39:48;;;;;;;2.28;1.90;;;;;;;35.67;22.74;94762.16;5080199;28;20179;-82
2022/05/21 10:42:37;;;;;;;3.17;2.40;;;;;;;35.61;23.17;94764.09;5075304;28;20186;-83
2022/05/21 10:45:18;;;;;;;2.75;2.10;;;;;;;35.53;22.97;94759.44;5075519;28;20628;-81
2022/05/21 10:48:09;;;;;;;3.10;2.03;;;;;;;35.38;23.07;94739.22;5074157;28;20194;-80
2022/05/21 10:50:50;;;;;;;3.67;2.53;;;;;;;35.35;23.32;94747.78;5073445;28;20273;-80
2022/05/21 10:53:50;;;;;;;4.85;2.13;;;;;;;35.24;23.32;94746.38;5073225;28;20198;-80
2022/05/21 10:56:36;;;;;;;5.43;2.20;;;;;;;35.14;23.47;94736.69;5073033;28;20286;-79
2022/05/21 10:59:17;;;;;;;3.75;2.28;;;;;;;35.06;23.46;94732.06;5073553;28;20272;-78
2022/05/21 11:01:54;;;;;;;5.40;2.30;;;;;;;34.98;23.89;94723.97;5073915;28;20576;-80
2022/05/21 11:04:38;;;;;;;3.88;2.13;;;;;;;34.92;23.84;94723.19;5073599;28;20190;-79
2022/05/21 11:07:22;;;;;;;3.80;2.20;;;;;;;34.84;23.95;94715.88;5073163;28;20201;-79
2022/05/21 11:09:59;;;;;;;2.55;1.95;;;;;;;34.40;23.91;94653.31;5073116;28;20193;-80
2022/05/21 11:12:32;;;;;;;5.25;1.90;;;;;;;34.67;23.61;94695.16;5072884;28;20186;-78
2022/05/21 11:15:05;;;;;;;1.90;1.80;;;;;;;34.61;23.71;94685.69;5073960;28;20190;-78
2022/05/21 11:17:42;;;;;;;3.50;2.33;;;;;;;34.52;23.67;94674.94;5073528;28;20226;-78
2022/05/21 11:20:17;;;;;;;2.35;1.65;;;;;;;33.99;23.99;94603.47;5072792;28;20200;-79
2022/05/21 11:22:50;;;;;;;4.15;1.67;;;;;;;34.40;23.89;94672.69;5072366;28;20194;-79
2022/05/21 11:25:23;;;;;;;1.80;1.63;;;;;;;34.07;23.94;94628.53;5072566;28;20264;-79
2022/05/21 11:27:56;;;;;;;1.88;1.70;;;;;;;34.29;23.84;94665.16;5072404;28;20195;-82
2022/05/21 11:30:23;;;;;;;2.90;1.88;;;;;;;34.01;23.64;94627.06;5072423;28;20205;-80
2022/05/21 11:38:32;;;;;;;3.92;1.92;;;;;;;33.97;23.66;94658.69;5072267;28;20367;-80
2022/05/21 11:44:55;;;;;;;1.80;1.70;;;;;;;33.45;23.56;94605.44;5050532;28;20191;-77
2022/05/21 11:46:51;;;;;;;2.00;1.80;;;;;;;33.66;23.88;94644.97;5051182;28;20593;-79
2022/05/21 11:49:40;;;;;;;1.80;1.70;;;;;;;33.64;23.66;94652.44;5049663;28;20195;-79
2022/05/21 11:52:41;;;;;;;2.17;1.90;;;;;;;33.19;23.76;94588.22;5049466;28;20290;-78
2022/05/21 11:55:16;;;;;;;3.60;2.00;;;;;;;33.27;24.07;94613.31;4990287;28;20302;-80
2022/05/21 11:57:45;;;;;;;3.58;1.80;;;;;;;33.41;23.91;94644.16;4990225;28;20220;-79
2022/05/21 12:00:43;;;;;;;2.55;1.73;;;;;;;33.34;24.02;94635.00;4990260;28;20193;-78
2022/05/21 12:03:13;;;;;;;1.70;1.60;;;;;;;33.29;24.32;94637.69;4989757;28;20193;-79
2022/05/21 12:06:18;;;;;;;2.65;1.88;;;;;;;33.22;24.28;94635.38;4990187;28;20197;-80
2022/05/21 12:08:49;;;;;;;1.85;1.75;;;;;;;32.69;24.29;94559.31;4932196;29;20199;-81
2022/05/21 12:11:43;;;;;;;2.65;1.70;;;;;;;33.09;24.72;94620.94;4931989;29;20230;-78
2022/05/21 12:14:28;;;;;;;3.10;1.85;;;;;;;32.90;24.67;94602.28;4931975;29;20214;-78
2022/05/21 12:17:01;;;;;;;1.98;1.85;;;;;;;33.00;24.68;94635.09;4932169;29;20309;-79
2022/05/21 12:20:06;;;;;;;2.30;1.88;;;;;;;32.94;24.90;94629.03;4935163;28;20238;-86
2022/05/21 12:22:36;;;;;;;1.70;1.60;;;;;;;32.76;24.70;94600.56;4970694;28;20228;-83
2022/05/21 12:25:06;;;;;;;3.22;1.70;;;;;;;32.83;24.57;94619.56;4970325;28;20207;-83